sensor_id;sensor_type;location;lat;lon;timestamp;pressure;altitude;pressure_sealevel;temperature;humidity
10881;BME280;5493;48.884;8.338;2024-03-23T00:52:51;99435.91;;;14.38;100.00
10881;BME280;5493;48.884;8.338;2024-03-23T00:55:17;99430.28;;;14.50;100.00
10881;BME280;5493;48.884;8.338;2024-03-23T00:57:43;99432.72;;;14.51;100.00
10881;BME280;5493;48.884;8.338;2024-03-23T01:00:09;99431.91;;;14.56;100.00
10881;BME280;5493;48.884;8.338;2024-03-23T01:02:36;99422.97;;;14.55;100.00
10881;BME280;5493;48.884;8.338;2024-03-23T01:05:02;99427.84;;;14.58;100.00
10881;BME280;5493;48.884;8.338;2024-03-23T01:07:29;99416.22;;;14.68;100.00
10881;BME280;5493;48.884;8.338;2024-03-23T01:09:55;99424.56;;;14.51;100.00
10881;BME280;5493;48.884;8.338;2024-03-23T01:12:22;99420.75;;;14.47;100.00
10881;BME280;5493;48.884;8.338;2024-03-23T01:14:47;99412.41;;;14.64;100.00
10881;BME280;5493;48.884;8.338;2024-03-23T01:17:14;99401.31;;;14.70;100.00
10881;BME280;5493;48.884;8.338;2024-03-23T01:19:39;99399.97;;;14.83;100.00
10881;BME280;5493;48.884;8.338;2024-03-23T01:22:06;99410.56;;;14.90;100.00
10881;BME280;5493;48.884;8.338;2024-03-23T01:24:32;99412.47;;;14.89;100.00
10881;BME280;5493;48.884;8.338;2024-03-23T01:27:00;99426.31;;;14.88;100.00
10881;BME280;5493;48.884;8.338;2024-03-23T01:29:25;99405.41;;;14.98;100.00
10881;BME280;5493;48.884;8.338;2024-03-23T01:31:52;99398.09;;;15.09;100.00
10881;BME280;5493;48.884;8.338;2024-03-23T01:34:17;99395.41;;;15.14;100.00
10881;BME280;5493;48.884;8.338;2024-03-23T01:36:45;99390.50;;;15.16;100.00
10881;BME280;5493;48.884;8.338;2024-03-23T01:39:11;99390.50;;;15.16;100.00
10881;BME280;5493;48.884;8.338;2024-03-23T01:41:39;99384.53;;;15.14;100.00
10881;BME280;5493;48.884;8.338;2024-03-23T01:44:08;99386.16;;;15.05;100.00
10881;BME280;5493;48.884;8.338;2024-03-23T01:46:36;99376.91;;;14.96;100.00
10881;BME280;5493;48.884;8.338;2024-03-23T01:49:02;99383.44;;;15.10;100.00
10881;BME280;5493;48.884;8.338;2024-03-23T01:51:30;99376.13;;;15.00;100.00
10881;BME280;5493;48.884;8.338;2024-03-23T01:53:56;99379.38;;;14.92;100.00
10881;BME280;5493;48.884;8.338;2024-03-23T01:56:23;99376.09;;;14.85;100.00
10881;BME280;5493;48.884;8.338;2024-03-23T01:58:48;99373.13;;;14.92;100.00
10881;BME280;5493;48.884;8.338;2024-03-23T02:01:16;99356.81;;;14.92;100.00
10881;BME280;5493;48.884;8.338;2024-03-23T02:03:42;99360.09;;;14.99;100.00
10881;BME280;5493;48.884;8.338;2024-03-23T02:06:08;99359.81;;;15.00;100.00
10881;BME280;5493;48.884;8.338;2024-03-23T02:08:34;99358.72;;;14.91;100.00
10881;BME280;5493;48.884;8.338;2024-03-23T02:11:01;99349.50;;;15.17;100.00
10881;BME280;5493;48.884;8.338;2024-03-23T02:13:26;99353.88;;;15.08;100.00
10881;BME280;5493;48.884;8.338;2024-03-23T02:15:53;99357.91;;;15.06;100.00
10881;BME280;5493;48.884;8.338;2024-03-23T02:18:20;99361.72;;;15.05;100.00
10881;BME280;5493;48.884;8.338;2024-03-23T02:20:47;99359.03;;;15.15;100.00
10881;BME280;5493;48.884;8.338;2024-03-23T02:23:17;99355.75;;;15.18;100.00
10881;BME280;5493;48.884;8.338;2024-03-23T02:25:44;99344.06;;;15.27;100.00
10881;BME280;5493;48.884;8.338;2024-03-23T02:28:10;99340.56;;;15.22;100.00
10881;BME280;5493;48.884;8.338;2024-03-23T02:30:37;99340.78;;;15.31;100.00
10881;BME280;5493;48.884;8.338;2024-03-23T02:33:03;99332.66;;;15.31;100.00
10881;BME280;5493;48.884;8.338;2024-03-23T02:35:29;99329.41;;;15.28;100.00
10881;BME280;5493;48.884;8.338;2024-03-23T02:37:55;99332.41;;;15.12;100.00
10881;BME280;5493;48.884;8.338;2024-03-23T02:40:23;99334.00;;;15.38;100.00
10881;BME280;5493;48.884;8.338;2024-03-23T02:42:49;99333.50;;;15.11;100.00
10881;BME280;5493;48.884;8.338;2024-03-23T02:45:16;99328.56;;;15.23;100.00
10881;BME280;5493;48.884;8.338;2024-03-23T02:47:42;99329.41;;;15.13;100.00
10881;BME280;5493;48.884;8.338;2024-03-23T02:50:08;99323.97;;;15.28;100.00
10881;BME280;5493;48.884;8.338;2024-03-23T02:52:34;99325.88;;;15.03;100.00
10881;BME280;5493;48.884;8.338;2024-03-23T02:55:02;99341.09;;;14.99;100.00
10881;BME280;5493;48.884;8.338;2024-03-23T02:57:29;99334.84;;;15.03;100.00
10881;BME280;5493;48.884;8.338;2024-03-23T02:59:56;99337.56;;;15.08;100.00
10881;BME280;5493;48.884;8.338;2024-03-23T03:02:21;99339.75;;;14.86;100.00
10881;BME280;5493;48.884;8.338;2024-03-23T03:04:48;99338.91;;;14.75;100.00
10881;BME280;5493;48.884;8.338;2024-03-23T03:07:14;99330.75;;;14.81;100.00
10881;BME280;5493;48.884;8.338;2024-03-23T03:09:40;99335.38;;;14.70;100.00
10881;BME280;5493;48.884;8.338;2024-03-23T03:12:06;99342.38;;;14.46;100.00
10881;BME280;5493;48.884;8.338;2024-03-23T03:14:34;99347.84;;;14.66;100.00
10881;BME280;5493;48.884;8.338;2024-03-23T03:16:59;99334.53;;;14.49;100.00
10881;BME280;5493;48.884;8.338;2024-03-23T03:19:26;99332.34;;;14.41;100.00
10881;BME280;5493;48.884;8.338;2024-03-23T03:21:52;99338.84;;;14.45;100.00
10881;BME280;5493;48.884;8.338;2024-03-23T03:24:18;99339.16;;;14.64;100.00
10881;BME280;5493;48.884;8.338;2024-03-23T03:26:44;99340.78;;;14.50;100.00
10881;BME280;5493;48.884;8.338;2024-03-23T03:29:12;99322.88;;;14.69;100.00
10881;BME280;5493;48.884;8.338;2024-03-23T03:31:39;99322.88;;;14.59;100.00
10881;BME280;5493;48.884;8.338;2024-03-23T03:34:05;99323.66;;;14.44;100.00
10881;BME280;5493;48.884;8.338;2024-03-23T03:36:31;99324.47;;;14.45;100.00
10881;BME280;5493;48.884;8.338;2024-03-23T03:38:57;99329.53;;;14.26;100.00
10881;BME280;5493;48.884;8.338;2024-03-23T03:41:23;99327.19;;;14.40;100.00
10881;BME280;5493;48.884;8.338;2024-03-23T03:43:49;99339.91;;;14.34;100.00
10881;BME280;5493;48.884;8.338;2024-03-23T03:46:15;99350.16;;;14.27;100.00
10881;BME280;5493;48.884;8.338;2024-03-23T03:48:42;99356.03;;;14.04;100.00
10881;BME280;5493;48.884;8.338;2024-03-23T03:51:10;99358.06;;;13.76;100.00
10881;BME280;5493;48.884;8.338;2024-03-23T03:53:36;99350.47;;;13.73;100.00
10881;BME280;5493;48.884;8.338;2024-03-23T03:56:02;99347.13;;;13.56;100.00
10881;BME280;5493;48.884;8.338;2024-03-23T03:58:29;99349.63;;;13.68;100.00
10881;BME280;5493;48.884;8.338;2024-03-23T04:00:54;99351.16;;;13.49;100.00
10881;BME280;5493;48.884;8.338;2024-03-23T04:03:21;99336.31;;;13.61;100.00
10881;BME280;5493;48.884;8.338;2024-03-23T04:05:51;99335.25;;;13.67;100.00
10881;BME280;5493;48.884;8.338;2024-03-23T04:08:17;99328.38;;;13.50;100.00
10881;BME280;5493;48.884;8.338;2024-03-23T04:10:43;99325.47;;;13.56;100.00
10881;BME280;5493;48.884;8.338;2024-03-23T04:13:09;99331.66;;;13.52;100.00
10881;BME280;5493;48.884;8.338;2024-03-23T04:15:35;99324.66;;;13.56;100.00
10881;BME280;5493;48.884;8.338;2024-03-23T04:18:02;99338.19;;;13.56;100.00
10881;BME280;5493;48.884;8.338;2024-03-23T04:20:27;99338.72;;;13.53;100.00
10881;BME280;5493;48.884;8.338;2024-03-23T04:22:55;99341.69;;;13.51;100.00
10881;BME280;5493;48.884;8.338;2024-03-23T04:25:21;99341.78;;;13.66;100.00
10881;BME280;5493;48.884;8.338;2024-03-23T04:27:47;99346.38;;;13.71;100.00
10881;BME280;5493;48.884;8.338;2024-03-23T04:30:13;99338.88;;;13.36;100.00
10881;BME280;5493;48.884;8.338;2024-03-23T04:32:40;99358.19;;;13.50;100.00
10881;BME280;5493;48.884;8.338;2024-03-23T04:35:08;99360.59;;;13.46;100.00
10881;BME280;5493;48.884;8.338;2024-03-23T04:37:35;99366.09;;;13.19;100.00
10881;BME280;5493;48.884;8.338;2024-03-23T04:40:04;99364.34;;;13.08;100.00
10881;BME280;5493;48.884;8.338;2024-03-23T04:42:31;99359.63;;;13.25;100.00
10881;BME280;5493;48.884;8.338;2024-03-23T04:44:57;99360.97;;;12.91;100.00
10881;BME280;5493;48.884;8.338;2024-03-23T04:47:24;99364.16;;;12.88;100.00
10881;BME280;5493;48.884;8.338;2024-03-23T04:49:50;99378.81;;;12.92;100.00
10881;BME280;5493;48.884;8.338;2024-03-23T04:52:17;99367.38;;;12.85;100.00
10881;BME280;5493;48.884;8.338;2024-03-23T04:54:44;99376.41;;;12.96;100.00
10881;BME280;5493;48.884;8.338;2024-03-23T04:57:12;99380.81;;;12.75;100.00
10881;BME280;5493;48.884;8.338;2024-03-23T04:59:38;99389.38;;;12.67;100.00
10881;BME280;5493;48.884;8.338;2024-03-23T05:02:04;99395.91;;;12.71;100.00
10881;BME280;5493;48.884;8.338;2024-03-23T05:04:35;99411.13;;;12.77;100.00
10881;BME280;5493;48.884;8.338;2024-03-23T05:07:04;99418.50;;;12.60;100.00
10881;BME280;5493;48.884;8.338;2024-03-23T05:09:31;99421.25;;;12.38;100.00
10881;BME280;5493;48.884;8.338;2024-03-23T05:11:58;99426.72;;;12.43;100.00
10881;BME280;5493;48.884;8.338;2024-03-23T05:14:26;99426.06;;;12.58;100.00
10881;BME280;5493;48.884;8.338;2024-03-23T05:16:53;99431.31;;;12.21;100.00
10881;BME280;5493;48.884;8.338;2024-03-23T05:19:18;99426.09;;;12.36;100.00
10881;BME280;5493;48.884;8.338;2024-03-23T05:21:45;99433.16;;;11.99;100.00
10881;BME280;5493;48.884;8.338;2024-03-23T05:24:11;99436.19;;;12.02;100.00
10881;BME280;5493;48.884;8.338;2024-03-23T05:26:38;99452.19;;;11.87;100.00
10881;BME280;5493;48.884;8.338;2024-03-23T05:29:03;99458.16;;;11.89;100.00
10881;BME280;5493;48.884;8.338;2024-03-23T05:31:33;99470.44;;;11.97;100.00
10881;BME280;5493;48.884;8.338;2024-03-23T05:33:59;99477.47;;;11.81;100.00
10881;BME280;5493;48.884;8.338;2024-03-23T05:36:25;99463.47;;;11.84;100.00
10881;BME280;5493;48.884;8.338;2024-03-23T05:38:51;99470.03;;;11.88;100.00
10881;BME280;5493;48.884;8.338;2024-03-23T05:41:17;99472.50;;;11.73;100.00
10881;BME280;5493;48.884;8.338;2024-03-23T05:43:43;99480.09;;;11.43;100.00
10881;BME280;5493;48.884;8.338;2024-03-23T05:46:09;99488.69;;;11.73;100.00
10881;BME280;5493;48.884;8.338;2024-03-23T05:48:36;99496.06;;;11.61;100.00
10881;BME280;5493;48.884;8.338;2024-03-23T05:51:03;99498.81;;;11.66;100.00
10881;BME280;5493;48.884;8.338;2024-03-23T05:53:29;99509.38;;;11.67;100.00
10881;BME280;5493;48.884;8.338;2024-03-23T05:56:00;99509.94;;;11.53;100.00
10881;BME280;5493;48.884;8.338;2024-03-23T05:58:28;99518.84;;;11.36;100.00
10881;BME280;5493;48.884;8.338;2024-03-23T06:00:57;99521.69;;;11.47;100.00
10881;BME280;5493;48.884;8.338;2024-03-23T06:03:23;99526.75;;;11.26;100.00
10881;BME280;5493;48.884;8.338;2024-03-23T06:05:51;99532.16;;;11.26;100.00
10881;BME280;5493;48.884;8.338;2024-03-23T06:08:18;99536.38;;;11.22;100.00
10881;BME280;5493;48.884;8.338;2024-03-23T06:10:44;99544.81;;;11.26;100.00
10881;BME280;5493;48.884;8.338;2024-03-23T06:13:10;99542.47;;;11.01;100.00
10881;BME280;5493;48.884;8.338;2024-03-23T06:15:37;99532.59;;;11.07;100.00
10881;BME280;5493;48.884;8.338;2024-03-23T06:18:03;99522.00;;;10.89;100.00
10881;BME280;5493;48.884;8.338;2024-03-23T06:20:30;99557.06;;;11.17;100.00
10881;BME280;5493;48.884;8.338;2024-03-23T06:22:57;99566.91;;;11.40;100.00
10881;BME280;5493;48.884;8.338;2024-03-23T06:25:24;99552.81;;;10.93;100.00
10881;BME280;5493;48.884;8.338;2024-03-23T06:27:49;99581.69;;;11.20;100.00
10881;BME280;5493;48.884;8.338;2024-03-23T06:30:16;99585.13;;;11.04;100.00
10881;BME280;5493;48.884;8.338;2024-03-23T06:32:41;99589.09;;;11.13;100.00
10881;BME280;5493;48.884;8.338;2024-03-23T06:35:08;99590.88;;;11.36;100.00
10881;BME280;5493;48.884;8.338;2024-03-23T06:37:35;99590.66;;;11.09;100.00
10881;BME280;5493;48.884;8.338;2024-03-23T06:40:04;99610.09;;;11.11;100.00
10881;BME280;5493;48.884;8.338;2024-03-23T06:42:33;99614.03;;;11.32;100.00
10881;BME280;5493;48.884;8.338;2024-03-23T06:45:00;99621.97;;;11.39;100.00
10881;BME280;5493;48.884;8.338;2024-03-23T06:47:25;99623.31;;;11.24;100.00
10881;BME280;5493;48.884;8.338;2024-03-23T06:49:52;99634.66;;;11.38;100.00
10881;BME280;5493;48.884;8.338;2024-03-23T06:52:18;99648.19;;;11.55;100.00
10881;BME280;5493;48.884;8.338;2024-03-23T06:54:44;99653.53;;;11.38;100.00
10881;BME280;5493;48.884;8.338;2024-03-23T06:57:11;99636.38;;;11.04;100.00
10881;BME280;5493;48.884;8.338;2024-03-23T06:59:38;99661.56;;;11.21;100.00
10881;BME280;5493;48.884;8.338;2024-03-23T07:02:04;99664.34;;;10.86;100.00
10881;BME280;5493;48.884;8.338;2024-03-23T07:04:30;99674.50;;;11.08;100.00
10881;BME280;5493;48.884;8.338;2024-03-23T07:06:56;99670.88;;;11.14;100.00
10881;BME280;5493;48.884;8.338;2024-03-23T07:09:23;99682.78;;;11.18;100.00
10881;BME280;5493;48.884;8.338;2024-03-23T07:11:51;99690.94;;;11.06;100.00
10881;BME280;5493;48.884;8.338;2024-03-23T07:14:21;99688.38;;;10.65;100.00
10881;BME280;5493;48.884;8.338;2024-03-23T07:16:46;99688.13;;;11.01;100.00
10881;BME280;5493;48.884;8.338;2024-03-23T07:19:14;99694.47;;;10.95;100.00
10881;BME280;5493;48.884;8.338;2024-03-23T07:21:41;99698.91;;;10.78;100.00
10881;BME280;5493;48.884;8.338;2024-03-23T07:24:08;99698.56;;;11.09;100.00
10881;BME280;5493;48.884;8.338;2024-03-23T07:26:34;99691.16;;;10.93;100.00
10881;BME280;5493;48.884;8.338;2024-03-23T07:29:01;99714.03;;;11.14;100.00
10881;BME280;5493;48.884;8.338;2024-03-23T07:31:28;99738.41;;;11.19;100.00
10881;BME280;5493;48.884;8.338;2024-03-23T07:33:55;99749.69;;;11.04;100.00
10881;BME280;5493;48.884;8.338;2024-03-23T07:36:20;99758.38;;;11.06;100.00
10881;BME280;5493;48.884;8.338;2024-03-23T07:38:47;99759.66;;;10.69;100.00
10881;BME280;5493;48.884;8.338;2024-03-23T07:41:15;99779.13;;;10.94;100.00
10881;BME280;5493;48.884;8.338;2024-03-23T07:43:45;99787.22;;;11.06;100.00
10881;BME280;5493;48.884;8.338;2024-03-23T07:46:11;99805.53;;;10.92;100.00
10881;BME280;5493;48.884;8.338;2024-03-23T07:48:39;99804.78;;;10.73;100.00
10881;BME280;5493;48.884;8.338;2024-03-23T07:51:07;99802.34;;;10.83;100.00
10881;BME280;5493;48.884;8.338;2024-03-23T07:53:35;99809.38;;;10.96;100.00
10881;BME280;5493;48.884;8.338;2024-03-23T07:56:07;99815.25;;;11.05;100.00
10881;BME280;5493;48.884;8.338;2024-03-23T07:58:34;99819.84;;;11.27;100.00
10881;BME280;5493;48.884;8.338;2024-03-23T08:01:04;99809.03;;;11.04;100.00
10881;BME280;5493;48.884;8.338;2024-03-23T08:03:33;99851.25;;;10.87;100.00
10881;BME280;5493;48.884;8.338;2024-03-23T08:06:08;99834.94;;;10.94;100.00
10881;BME280;5493;48.884;8.338;2024-03-23T08:08:35;99834.59;;;11.02;100.00
10881;BME280;5493;48.884;8.338;2024-03-23T08:11:00;99833.38;;;10.74;100.00
10881;BME280;5493;48.884;8.338;2024-03-23T08:13:27;99839.53;;;10.81;100.00
10881;BME280;5493;48.884;8.338;2024-03-23T08:15:56;99839.41;;;10.88;100.00
10881;BME280;5493;48.884;8.338;2024-03-23T08:18:23;99845.84;;;10.87;100.00
10881;BME280;5493;48.884;8.338;2024-03-23T08:20:55;99853.13;;;10.98;100.00
10881;BME280;5493;48.884;8.338;2024-03-23T08:23:23;99873.31;;;11.07;100.00
10881;BME280;5493;48.884;8.338;2024-03-23T08:25:49;99872.94;;;10.92;100.00
10881;BME280;5493;48.884;8.338;2024-03-23T08:28:15;99867.78;;;10.91;100.00
10881;BME280;5493;48.884;8.338;2024-03-23T08:30:41;99863.94;;;11.10;100.00
10881;BME280;5493;48.884;8.338;2024-03-23T08:33:07;99865.47;;;11.41;100.00
10881;BME280;5493;48.884;8.338;2024-03-23T08:35:33;99865.59;;;11.57;100.00
10881;BME280;5493;48.884;8.338;2024-03-23T08:38:00;99861.03;;;11.34;100.00
10881;BME280;5493;48.884;8.338;2024-03-23T08:40:27;99870.50;;;11.37;100.00
10881;BME280;5493;48.884;8.338;2024-03-23T08:42:53;99875.69;;;11.50;100.00
10881;BME280;5493;48.884;8.338;2024-03-23T08:45:19;99878.03;;;11.23;100.00
10881;BME280;5493;48.884;8.338;2024-03-23T08:47:45;99884.16;;;11.54;100.00
10881;BME280;5493;48.884;8.338;2024-03-23T08:50:11;99886.97;;;11.35;100.00
10881;BME280;5493;48.884;8.338;2024-03-23T08:52:37;99884.13;;;11.30;100.00
10881;BME280;5493;48.884;8.338;2024-03-23T08:55:03;99887.06;;;11.41;100.00
10881;BME280;5493;48.884;8.338;2024-03-23T08:57:31;99886.25;;;11.17;100.00
10881;BME280;5493;48.884;8.338;2024-03-23T08:59:57;99890.72;;;11.81;100.00
10881;BME280;5493;48.884;8.338;2024-03-23T09:02:24;99896.34;;;11.56;100.00
10881;BME280;5493;48.884;8.338;2024-03-23T09:04:49;99903.94;;;11.36;100.00
10881;BME280;5493;48.884;8.338;2024-03-23T09:07:16;99893.03;;;11.66;100.00
10881;BME280;5493;48.884;8.338;2024-03-23T09:09:42;99892.84;;;11.79;100.00
10881;BME280;5493;48.884;8.338;2024-03-23T09:12:08;99893.47;;;12.09;100.00
10881;BME280;5493;48.884;8.338;2024-03-23T09:14:35;99892.56;;;11.92;100.00
10881;BME280;5493;48.884;8.338;2024-03-23T09:17:04;99891.19;;;12.29;100.00
10881;BME280;5493;48.884;8.338;2024-03-23T09:19:30;99883.88;;;12.30;100.00
10881;BME280;5493;48.884;8.338;2024-03-23T09:21:57;99878.56;;;12.63;100.00
10881;BME280;5493;48.884;8.338;2024-03-23T09:24:23;99883.91;;;12.58;100.00
10881;BME280;5493;48.884;8.338;2024-03-23T09:26:51;99880.16;;;12.19;100.00
10881;BME280;5493;48.884;8.338;2024-03-23T09:29:18;99870.63;;;12.73;100.00
10881;BME280;5493;48.884;8.338;2024-03-23T09:31:45;99869.50;;;12.41;100.00
10881;BME280;5493;48.884;8.338;2024-03-23T09:34:11;99864.72;;;12.31;100.00
10881;BME280;5493;48.884;8.338;2024-03-23T09:36:37;99874.03;;;12.52;100.00
10881;BME280;5493;48.884;8.338;2024-03-23T09:39:04;99869.25;;;12.71;100.00
10881;BME280;5493;48.884;8.338;2024-03-23T09:41:30;99877.16;;;12.44;100.00
10881;BME280;5493;48.884;8.338;2024-03-23T09:43:57;99879.78;;;11.88;100.00
10881;BME280;5493;48.884;8.338;2024-03-23T09:46:23;99880.09;;;12.03;100.00
10881;BME280;5493;48.884;8.338;2024-03-23T09:48:51;99892.81;;;11.91;100.00
10881;BME280;5493;48.884;8.338;2024-03-23T09:51:17;99908.78;;;11.57;100.00
10881;BME280;5493;48.884;8.338;2024-03-23T09:53:44;99947.38;;;10.81;100.00
10881;BME280;5493;48.884;8.338;2024-03-23T09:56:10;99969.47;;;9.81;100.00
10881;BME280;5493;48.884;8.338;2024-03-23T09:58:36;99982.97;;;9.56;100.00
10881;BME280;5493;48.884;8.338;2024-03-23T10:01:02;99980.94;;;9.52;100.00
10881;BME280;5493;48.884;8.338;2024-03-23T10:03:30;99978.09;;;9.15;100.00
10881;BME280;5493;48.884;8.338;2024-03-23T10:06:03;99970.28;;;9.38;100.00
10881;BME280;5493;48.884;8.338;2024-03-23T10:08:30;99982.22;;;8.86;100.00
10881;BME280;5493;48.884;8.338;2024-03-23T10:10:56;99977.91;;;9.17;100.00
10881;BME280;5493;48.884;8.338;2024-03-23T10:13:27;99976.69;;;9.37;100.00
10881;BME280;5493;48.884;8.338;2024-03-23T10:15:55;99969.34;;;9.26;100.00
10881;BME280;5493;48.884;8.338;2024-03-23T10:18:23;99967.19;;;9.60;100.00
10881;BME280;5493;48.884;8.338;2024-03-23T10:20:52;99954.41;;;9.80;100.00
10881;BME280;5493;48.884;8.338;2024-03-23T10:23:20;99963.44;;;9.18;100.00
10881;BME280;5493;48.884;8.338;2024-03-23T10:25:46;99964.63;;;9.22;100.00
10881;BME280;5493;48.884;8.338;2024-03-23T10:28:12;99965.13;;;9.37;100.00
10881;BME280;5493;48.884;8.338;2024-03-23T10:30:38;99971.22;;;8.95;100.00
10881;BME280;5493;48.884;8.338;2024-03-23T10:33:08;99973.84;;;9.08;100.00
10881;BME280;5493;48.884;8.338;2024-03-23T10:35:34;99967.44;;;9.02;100.00
10881;BME280;5493;48.884;8.338;2024-03-23T10:38:01;99975.00;;;9.68;100.00
10881;BME280;5493;48.884;8.338;2024-03-23T10:40:29;99970.41;;;9.25;100.00
10881;BME280;5493;48.884;8.338;2024-03-23T10:42:57;99973.72;;;9.70;100.00
10881;BME280;5493;48.884;8.338;2024-03-23T10:45:23;99976.88;;;10.28;100.00
10881;BME280;5493;48.884;8.338;2024-03-23T10:47:53;99964.09;;;11.02;100.00
10881;BME280;5493;48.884;8.338;2024-03-23T10:50:18;99965.91;;;10.90;100.00
10881;BME280;5493;48.884;8.338;2024-03-23T10:52:46;99963.94;;;10.37;100.00
10881;BME280;5493;48.884;8.338;2024-03-23T10:55:14;99971.34;;;10.23;100.00
10881;BME280;5493;48.884;8.338;2024-03-23T10:57:45;99960.81;;;10.70;100.00
10881;BME280;5493;48.884;8.338;2024-03-23T11:00:14;99950.22;;;10.38;100.00
10881;BME280;5493;48.884;8.338;2024-03-23T11:02:41;99950.00;;;10.04;100.00
10881;BME280;5493;48.884;8.338;2024-03-23T11:05:28;99942.38;;;10.37;100.00
10881;BME280;5493;48.884;8.338;2024-03-23T11:07:55;99937.03;;;10.78;100.00
10881;BME280;5493;48.884;8.338;2024-03-23T11:10:26;99936.44;;;10.76;100.00
10881;BME280;5493;48.884;8.338;2024-03-23T11:12:55;99939.50;;;10.80;100.00
10881;BME280;5493;48.884;8.338;2024-03-23T11:15:21;99937.31;;;10.59;100.00
10881;BME280;5493;48.884;8.338;2024-03-23T11:18:08;99934.56;;;10.47;100.00
10881;BME280;5493;48.884;8.338;2024-03-23T11:20:35;99933.91;;;10.52;100.00
10881;BME280;5493;48.884;8.338;2024-03-23T11:23:02;99925.94;;;10.57;100.00
10881;BME280;5493;48.884;8.338;2024-03-23T11:25:28;99924.78;;;10.94;100.00
10881;BME280;5493;48.884;8.338;2024-03-23T11:27:57;99911.50;;;10.93;100.00
10881;BME280;5493;48.884;8.338;2024-03-23T11:30:24;99911.06;;;11.07;100.00
10881;BME280;5493;48.884;8.338;2024-03-23T11:32:51;99905.28;;;11.57;100.00
10881;BME280;5493;48.884;8.338;2024-03-23T11:35:28;99907.41;;;12.29;100.00
10881;BME280;5493;48.884;8.338;2024-03-23T11:38:06;99920.41;;;13.17;100.00
10881;BME280;5493;48.884;8.338;2024-03-23T11:40:32;99911.31;;;13.40;100.00
10881;BME280;5493;48.884;8.338;2024-03-23T11:43:02;99903.84;;;13.47;100.00
10881;BME280;5493;48.884;8.338;2024-03-23T11:45:28;99896.78;;;13.29;100.00
10881;BME280;5493;48.884;8.338;2024-03-23T11:48:05;99899.28;;;13.03;100.00
10881;BME280;5493;48.884;8.338;2024-03-23T11:50:32;99893.56;;;13.66;100.00
10881;BME280;5493;48.884;8.338;2024-03-23T11:53:08;99898.44;;;14.29;100.00
10881;BME280;5493;48.884;8.338;2024-03-23T11:55:41;99894.66;;;14.30;100.00
10881;BME280;5493;48.884;8.338;2024-03-23T11:58:10;99877.84;;;14.76;100.00
10881;BME280;5493;48.884;8.338;2024-03-23T12:00:36;99878.41;;;15.10;100.00
10881;BME280;5493;48.884;8.338;2024-03-23T12:03:03;99879.13;;;15.64;100.00
10881;BME280;5493;48.884;8.338;2024-03-23T12:05:30;99876.09;;;16.08;100.00
10881;BME280;5493;48.884;8.338;2024-03-23T12:08:18;99881.53;;;16.08;100.00
10881;BME280;5493;48.884;8.338;2024-03-23T12:10:46;99866.69;;;14.46;100.00
10881;BME280;5493;48.884;8.338;2024-03-23T12:13:16;99859.41;;;13.26;100.00
10881;BME280;5493;48.884;8.338;2024-03-23T12:15:42;99864.22;;;13.79;100.00
10881;BME280;5493;48.884;8.338;2024-03-23T12:18:10;99859.09;;;13.61;100.00
10881;BME280;5493;48.884;8.338;2024-03-23T12:20:35;99858.81;;;13.24;100.00
10881;BME280;5493;48.884;8.338;2024-03-23T12:23:07;99856.41;;;12.33;100.00
10881;BME280;5493;48.884;8.338;2024-03-23T12:25:33;99815.91;;;12.38;100.00
10881;BME280;5493;48.884;8.338;2024-03-23T12:28:00;99838.50;;;14.04;100.00
10881;BME280;5493;48.884;8.338;2024-03-23T12:30:27;99847.09;;;13.96;100.00
10881;BME280;5493;48.884;8.338;2024-03-23T12:32:53;99851.91;;;13.17;100.00
10881;BME280;5493;48.884;8.338;2024-03-23T12:35:19;99840.53;;;13.53;100.00
10881;BME280;5493;48.884;8.338;2024-03-23T12:37:45;99836.88;;;13.43;100.00
10881;BME280;5493;48.884;8.338;2024-03-23T12:40:11;99826.69;;;12.50;100.00
10881;BME280;5493;48.884;8.338;2024-03-23T12:42:37;99833.69;;;12.62;100.00
10881;BME280;5493;48.884;8.338;2024-03-23T12:45:04;99832.53;;;12.30;100.00
10881;BME280;5493;48.884;8.338;2024-03-23T12:47:32;99820.03;;;12.12;100.00
10881;BME280;5493;48.884;8.338;2024-03-23T12:50:00;99816.75;;;12.39;100.00
10881;BME280;5493;48.884;8.338;2024-03-23T12:52:26;99845.50;;;12.73;100.00
10881;BME280;5493;48.884;8.338;2024-03-23T12:54:54;99863.25;;;12.12;100.00
10881;BME280;5493;48.884;8.338;2024-03-23T12:57:23;99890.00;;;11.86;100.00
10881;BME280;5493;48.884;8.338;2024-03-23T12:59:49;99885.66;;;11.50;100.00
10881;BME280;5493;48.884;8.338;2024-03-23T13:02:17;99888.22;;;11.10;100.00
10881;BME280;5493;48.884;8.338;2024-03-23T13:04:44;99898.34;;;10.73;100.00
10881;BME280;5493;48.884;8.338;2024-03-23T13:07:11;99896.56;;;10.67;100.00
10881;BME280;5493;48.884;8.338;2024-03-23T13:09:36;99898.34;;;10.73;100.00
10881;BME280;5493;48.884;8.338;2024-03-23T13:12:03;99877.81;;;11.25;100.00
10881;BME280;5493;48.884;8.338;2024-03-23T13:14:28;99875.88;;;11.95;100.00
10881;BME280;5493;48.884;8.338;2024-03-23T13:16:55;99872.03;;;13.38;100.00
10881;BME280;5493;48.884;8.338;2024-03-23T13:19:21;99879.09;;;13.77;100.00
10881;BME280;5493;48.884;8.338;2024-03-23T13:21:53;99879.34;;;12.75;98.67
10881;BME280;5493;48.884;8.338;2024-03-23T13:24:21;99863.00;;;12.70;98.63
10881;BME280;5493;48.884;8.338;2024-03-23T13:26:49;99883.84;;;12.42;100.00
10881;BME280;5493;48.884;8.338;2024-03-23T13:29:14;99895.41;;;11.86;100.00
10881;BME280;5493;48.884;8.338;2024-03-23T13:31:41;99902.66;;;11.62;100.00
10881;BME280;5493;48.884;8.338;2024-03-23T13:34:07;99914.06;;;11.52;100.00
10881;BME280;5493;48.884;8.338;2024-03-23T13:36:33;99895.38;;;11.62;100.00
10881;BME280;5493;48.884;8.338;2024-03-23T13:39:00;99899.84;;;11.33;100.00
10881;BME280;5493;48.884;8.338;2024-03-23T13:41:27;99896.94;;;11.35;100.00
10881;BME280;5493;48.884;8.338;2024-03-23T13:43:53;99896.00;;;11.53;100.00
10881;BME280;5493;48.884;8.338;2024-03-23T13:46:19;99900.84;;;12.54;100.00
10881;BME280;5493;48.884;8.338;2024-03-23T13:48:45;99909.38;;;12.34;97.26
10881;BME280;5493;48.884;8.338;2024-03-23T13:51:11;99906.78;;;12.39;96.84